createdAt,value
2023-03-29T00:00:07.692Z,9.48
2023-03-29T00:02:37.174Z,7.40
2023-03-29T00:05:06.177Z,7.70
2023-03-29T00:07:33.900Z,8.18
2023-03-29T00:10:04.628Z,11.73
2023-03-29T00:12:33.439Z,11.93
2023-03-29T00:15:01.034Z,10.23
2023-03-29T00:17:30.557Z,9.98
2023-03-29T00:19:59.865Z,12.50
2023-03-29T00:22:33.820Z,9.82
2023-03-29T00:25:02.728Z,11.63
2023-03-29T00:27:30.630Z,11.23
2023-03-29T00:30:00.524Z,13.25
2023-03-29T00:32:28.450Z,11.65
2023-03-29T00:34:56.126Z,10.93
2023-03-29T00:37:25.143Z,10.25
2023-03-29T00:39:54.120Z,13.50
2023-03-29T00:42:22.134Z,13.82
2023-03-29T00:44:59.504Z,14.30
2023-03-29T00:47:32.511Z,12.23
2023-03-29T00:50:04.886Z,12.35
2023-03-29T00:52:35.629Z,12.05
2023-03-29T00:55:11.843Z,16.20
2023-03-29T00:57:40.684Z,15.63
2023-03-29T01:00:13.139Z,13.02
2023-03-29T01:02:43.546Z,14.88
2023-03-29T01:05:15.701Z,13.10
2023-03-29T01:07:49.911Z,16.73
2023-03-29T01:10:25.465Z,12.40
2023-03-29T01:12:58.165Z,16.20
2023-03-29T01:15:27.774Z,18.15
2023-03-29T01:17:56.740Z,16.70
2023-03-29T01:20:35.587Z,14.18
2023-03-29T01:23:21.243Z,16.63
2023-03-29T01:26:00.857Z,17.90
2023-03-29T01:28:34.240Z,18.23
2023-03-29T01:31:05.745Z,17.10
2023-03-29T01:33:38.733Z,15.43
2023-03-29T01:36:14.227Z,13.48
2023-03-29T01:38:46.609Z,15.88
2023-03-29T01:41:14.842Z,17.67
2023-03-29T01:43:48.781Z,18.95
2023-03-29T01:46:26.954Z,16.70
2023-03-29T01:48:59.739Z,15.35
2023-03-29T01:51:35.247Z,15.93
2023-03-29T01:54:07.395Z,16.38
2023-03-29T01:56:40.698Z,16.55
2023-03-29T01:59:14.044Z,19.48
2023-03-29T02:01:47.454Z,16.70
2023-03-29T02:04:20.060Z,17.63
2023-03-29T02:06:53.273Z,16.27
2023-03-29T02:09:22.322Z,17.92
2023-03-29T02:11:51.479Z,18.52
2023-03-29T02:14:25.593Z,17.55
2023-03-29T02:16:53.442Z,19.58
2023-03-29T02:19:22.851Z,18.65
2023-03-29T02:21:59.850Z,19.17
2023-03-29T02:24:30.495Z,22.13
2023-03-29T02:26:59.914Z,17.45
2023-03-29T02:29:30.249Z,18.90
2023-03-29T02:32:03.277Z,19.27
2023-03-29T02:34:34.599Z,21.08
2023-03-29T02:37:06.458Z,19.92
2023-03-29T02:39:37.946Z,18.73
2023-03-29T02:42:07.491Z,16.52
2023-03-29T02:44:39.800Z,19.15
2023-03-29T02:47:13.855Z,18.90
2023-03-29T02:49:41.636Z,18.73
2023-03-29T02:52:14.472Z,17.77
2023-03-29T02:54:43.775Z,22.30
2023-03-29T02:57:11.824Z,22.90
2023-03-29T10:59:30.357Z,7.07
2023-03-29T11:02:33.264Z,3.88
2023-03-29T11:05:16.312Z,6.30
2023-03-29T11:07:59.803Z,6.32
2023-03-29T11:10:37.852Z,8.32
2023-03-29T11:13:14.671Z,3.53
2023-03-29T11:15:55.607Z,5.20
2023-03-29T11:18:43.285Z,8.40
2023-03-29T11:21:21.132Z,4.22
2023-03-29T11:23:57.918Z,5.05
2023-03-29T11:26:30.235Z,4.50
2023-03-29T11:29:06.856Z,6.15
2023-03-29T11:31:48.230Z,6.70
2023-03-29T11:34:28.811Z,7.93
2023-03-29T11:37:03.520Z,4.65
2023-03-29T11:39:45.054Z,6.38
2023-03-29T11:42:18.685Z,4.57
2023-03-29T11:44:53.408Z,15.30
2023-03-29T11:47:28.006Z,5.60
2023-03-29T11:49:58.461Z,4.15
2023-03-29T11:52:30.449Z,6.38
2023-03-29T11:55:03.111Z,5.57
2023-03-29T11:57:37.363Z,9.13
2023-03-29T12:00:10.835Z,6.47
2023-03-29T12:02:44.794Z,4.10
2023-03-29T12:05:20.114Z,8.98
2023-03-29T12:07:53.763Z,13.48
2023-03-29T12:10:23.166Z,5.45
2023-03-29T12:12:58.611Z,5.47
2023-03-29T12:15:29.613Z,10.13
2023-03-29T12:18:06.021Z,13.40
2023-03-29T12:20:39.010Z,5.90
2023-03-29T12:23:10.822Z,6.15
2023-03-29T12:25:48.976Z,5.97
2023-03-29T12:29:08.889Z,4.32
2023-03-29T12:31:44.699Z,7.43
2023-03-29T12:34:28.473Z,8.40
2023-03-29T12:37:10.655Z,6.30
2023-03-29T12:39:39.492Z,5.75
2023-03-29T12:42:16.501Z,6.72
2023-03-29T12:44:49.337Z,4.55
2023-03-29T12:47:21.192Z,14.55
2023-03-29T12:49:53.973Z,5.40
2023-03-29T12:52:27.303Z,5.53
2023-03-29T12:54:56.736Z,8.82
2023-03-29T12:57:28.461Z,7.15
2023-03-29T13:02:35.756Z,9.15
2023-03-29T13:05:29.059Z,7.25
2023-03-29T13:07:56.836Z,10.02
2023-03-29T13:10:51.909Z,10.63
2023-03-29T13:13:26.919Z,7.72
2023-03-29T13:15:54.927Z,5.68
2023-03-29T13:18:43.597Z,7.50
2023-03-29T13:21:20.868Z,9.68
2023-03-29T13:23:56.613Z,7.35
2023-03-29T13:26:37.313Z,7.15
2023-03-29T13:29:22.451Z,8.98
2023-03-29T13:31:58.637Z,8.23
2023-03-29T13:34:36.953Z,7.85
2023-03-29T13:37:22.911Z,4.05
2023-03-29T13:39:52.475Z,8.50
2023-03-29T13:42:26.023Z,12.30
2023-03-29T13:45:04.835Z,5.65
2023-03-29T13:47:48.930Z,10.82
2023-03-29T13:50:35.620Z,12.18
2023-03-29T13:53:12.468Z,9.18
2023-03-29T13:55:46.119Z,11.00
2023-03-29T13:58:30.369Z,9.02
2023-03-29T14:01:06.788Z,23.65
2023-03-29T14:03:43.130Z,11.95
2023-03-29T14:06:14.070Z,12.65
2023-03-29T14:08:47.802Z,8.25
2023-03-29T14:11:22.064Z,8.45
2023-03-29T14:13:52.584Z,7.05
2023-03-29T14:16:20.794Z,5.85
2023-03-29T14:18:50.756Z,9.13
2023-03-29T14:21:20.794Z,14.45
2023-03-29T14:23:56.169Z,15.73
2023-03-29T14:26:29.265Z,20.00
2023-03-29T14:28:58.711Z,39.53
2023-03-29T14:31:30.243Z,28.08
2023-03-29T14:34:00.325Z,117.82
2023-03-29T14:36:31.038Z,80.47
2023-03-29T14:39:04.238Z,40.65
2023-03-29T14:41:34.506Z,26.45
2023-03-29T14:44:03.306Z,47.80
2023-03-29T14:46:31.628Z,112.18
2023-03-29T14:49:01.850Z,74.20
2023-03-29T14:51:29.743Z,48.55
2023-03-29T14:53:59.082Z,32.40
2023-03-29T14:56:29.118Z,16.10
2023-03-29T14:58:57.556Z,9.68
2023-03-29T15:01:26.717Z,19.08
2023-03-29T15:03:57.051Z,19.35
2023-03-29T15:06:26.052Z,13.15
2023-03-29T15:09:05.077Z,8.88
2023-03-29T15:11:35.875Z,13.88
2023-03-29T15:14:06.324Z,15.25
2023-03-29T15:16:38.730Z,14.68
2023-03-29T15:19:07.615Z,13.45
2023-03-29T15:21:35.670Z,14.55
2023-03-29T15:24:04.895Z,19.40
2023-03-29T15:26:34.396Z,22.23
2023-03-29T15:29:07.196Z,22.83
2023-03-29T15:31:37.952Z,17.40
2023-03-29T15:34:09.053Z,10.93
2023-03-29T15:36:41.072Z,11.75
2023-03-29T15:39:12.289Z,13.77
2023-03-29T15:41:39.977Z,11.73
2023-03-29T15:44:10.641Z,13.15
2023-03-29T15:46:38.776Z,12.88
2023-03-29T15:49:10.653Z,12.35
2023-03-29T15:51:40.183Z,14.00
2023-03-29T15:54:07.977Z,15.70
2023-03-29T15:56:43.724Z,18.23
2023-03-29T15:59:13.531Z,15.85
2023-03-29T16:01:41.347Z,12.50
2023-03-29T16:04:12.397Z,17.10
2023-03-29T16:06:42.393Z,26.55
2023-03-29T16:09:10.375Z,20.15
2023-03-29T16:11:38.594Z,17.77
2023-03-29T16:14:20.922Z,18.90
2023-03-29T16:16:49.516Z,13.00
2023-03-29T16:19:22.458Z,15.18
2023-03-29T16:21:51.118Z,12.18
2023-03-29T16:24:22.250Z,13.57
2023-03-29T16:26:52.800Z,16.88
2023-03-29T16:29:25.470Z,32.70
2023-03-29T16:31:53.906Z,60.58
2023-03-29T16:34:22.143Z,28.70
2023-03-29T16:36:50.619Z,40.90
2023-03-29T16:39:19.944Z,24.13
2023-03-29T16:41:47.802Z,21.33
2023-03-29T16:44:16.702Z,48.10
2023-03-29T16:46:46.355Z,64.00
2023-03-29T16:49:14.608Z,28.42
2023-03-29T16:51:42.330Z,140.48
2023-03-29T16:54:10.005Z,89.90
2023-03-29T16:56:38.029Z,109.70
2023-03-29T16:59:06.716Z,48.08
2023-03-29T17:01:34.626Z,90.43
2023-03-29T17:04:04.201Z,100.90
2023-03-29T17:06:32.905Z,72.30
2023-03-29T17:09:00.967Z,76.32
2023-03-29T17:11:29.076Z,71.50
2023-03-29T17:13:57.627Z,80.43
2023-03-29T17:16:26.058Z,32.45
2023-03-29T17:18:53.951Z,27.33
2023-03-29T17:21:22.989Z,36.20
2023-03-29T17:23:50.988Z,26.52
2023-03-29T17:26:18.633Z,26.10
2023-03-29T17:28:46.578Z,37.28
2023-03-29T17:31:14.621Z,29.75
2023-03-29T17:33:43.008Z,27.05
2023-03-29T17:36:11.397Z,22.42
2023-03-29T17:38:41.328Z,26.13
2023-03-29T17:41:08.924Z,30.90
2023-03-29T17:43:37.270Z,33.88
2023-03-29T17:46:06.061Z,38.78
2023-03-29T17:48:33.950Z,39.78
2023-03-29T17:51:01.859Z,38.97
2023-03-29T17:53:30.240Z,59.83
2023-03-29T17:55:59.561Z,51.10
2023-03-29T17:58:27.296Z,57.13
2023-03-29T18:00:55.091Z,49.25
2023-03-29T18:03:23.809Z,53.97
2023-03-29T18:05:51.553Z,66.10
2023-03-29T18:08:19.328Z,52.45
2023-03-29T18:10:48.013Z,46.72
2023-03-29T18:13:17.660Z,49.75
2023-03-29T18:15:45.442Z,48.33
2023-03-29T18:18:13.164Z,43.85
2023-03-29T18:20:41.035Z,39.95
2023-03-29T18:23:11.658Z,41.10
2023-03-29T18:25:40.383Z,30.05
2023-03-29T18:28:08.089Z,37.78
2023-03-29T18:30:38.189Z,37.03
2023-03-29T18:33:05.988Z,42.40
2023-03-29T18:35:33.787Z,62.58
2023-03-29T18:38:01.668Z,43.17
2023-03-29T18:40:29.330Z,25.48
2023-03-29T18:42:57.186Z,25.60
2023-03-29T18:45:25.025Z,22.55
2023-03-29T18:47:54.783Z,24.48
2023-03-29T18:50:23.004Z,25.85
2023-03-29T18:52:51.240Z,25.33
2023-03-29T18:55:18.999Z,24.33
2023-03-29T18:57:46.729Z,19.00
2023-03-29T19:00:17.478Z,16.08
2023-03-29T19:02:46.377Z,19.48
2023-03-29T19:05:15.590Z,24.80
2023-03-29T19:07:43.452Z,22.83
2023-03-29T19:10:11.238Z,22.17
2023-03-29T19:12:39.011Z,19.10
2023-03-29T19:15:09.352Z,21.67
2023-03-29T19:17:37.350Z,23.02
2023-03-29T19:20:06.361Z,23.67
2023-03-29T19:22:36.015Z,57.30
2023-03-29T19:25:04.169Z,46.45
2023-03-29T19:27:33.233Z,48.30
2023-03-29T19:30:00.960Z,33.85
2023-03-29T19:32:28.660Z,28.65
2023-03-29T19:35:02.511Z,23.90
2023-03-29T19:37:30.529Z,18.55
2023-03-29T19:40:00.041Z,17.67
2023-03-29T19:42:28.189Z,21.52
2023-03-29T19:44:55.789Z,18.77
2023-03-29T19:47:23.468Z,14.95
2023-03-29T19:49:51.413Z,14.85
2023-03-29T19:52:18.974Z,20.75
2023-03-29T19:54:46.631Z,27.67
2023-03-29T19:57:15.828Z,26.27
2023-03-29T19:59:43.673Z,19.13
2023-03-29T20:02:18.858Z,25.38
2023-03-29T20:04:46.423Z,35.83
2023-03-29T20:07:14.353Z,31.02
2023-03-29T20:09:44.567Z,28.45
2023-03-29T20:12:12.865Z,37.40
2023-03-29T20:14:42.286Z,22.92
2023-03-29T20:17:09.858Z,29.85
2023-03-29T20:19:37.522Z,27.05
2023-03-29T20:22:05.378Z,26.02
2023-03-29T20:24:34.763Z,27.05
2023-03-29T20:27:02.598Z,26.50
2023-03-29T20:29:31.150Z,26.33
2023-03-29T20:32:00.465Z,22.55
2023-03-29T20:34:28.161Z,21.27
2023-03-29T20:36:56.081Z,17.92
2023-03-29T20:39:25.807Z,16.75
2023-03-29T20:41:53.575Z,17.75
2023-03-29T20:44:21.464Z,19.33
2023-03-29T20:46:49.158Z,17.80
2023-03-29T20:49:18.140Z,17.60
2023-03-29T20:51:46.291Z,19.45
2023-03-29T20:54:14.068Z,16.40
2023-03-29T20:56:41.697Z,15.40
2023-03-29T20:59:10.942Z,15.73
2023-03-29T21:01:38.794Z,14.90
2023-03-29T21:04:07.309Z,16.58
2023-03-29T21:06:37.023Z,13.57
2023-03-29T21:09:04.640Z,10.68
2023-03-29T21:11:33.032Z,13.60
2023-03-29T21:14:01.118Z,17.50
2023-03-29T21:16:28.822Z,12.77
2023-03-29T21:18:57.132Z,13.75
2023-03-29T21:21:25.216Z,13.43
2023-03-29T21:23:54.335Z,10.32
2023-03-29T21:26:21.853Z,11.40
2023-03-29T21:28:49.766Z,11.77
2023-03-29T21:31:17.382Z,10.25
2023-03-29T21:33:45.523Z,10.85
2023-03-29T21:36:14.837Z,7.53
2023-03-29T21:38:44.408Z,9.05
2023-03-29T21:41:13.797Z,6.80
2023-03-29T21:43:41.901Z,7.88
2023-03-29T21:46:10.100Z,13.15
2023-03-29T21:48:37.995Z,8.05
2023-03-29T21:51:06.926Z,11.90
2023-03-29T21:53:35.065Z,10.55
2023-03-29T21:56:02.883Z,11.85
2023-03-29T21:58:32.665Z,11.90
2023-03-29T22:01:01.721Z,13.97
2023-03-29T22:03:30.245Z,16.60
2023-03-29T22:05:59.512Z,14.63
2023-03-29T22:08:28.464Z,15.75
2023-03-29T22:10:57.141Z,13.75
2023-03-29T22:13:27.634Z,12.10
2023-03-29T22:15:57.551Z,11.60
2023-03-29T22:18:25.995Z,11.32
2023-03-29T22:21:00.512Z,11.90
2023-03-29T22:23:28.551Z,14.02
2023-03-29T22:25:56.200Z,12.05
2023-03-29T22:28:25.929Z,12.32
2023-03-29T22:30:53.597Z,10.32
2023-03-29T22:33:22.590Z,12.00
2023-03-29T22:35:50.258Z,14.70
2023-03-29T22:38:17.945Z,13.68
2023-03-29T22:40:45.576Z,15.95
2023-03-29T22:43:13.379Z,15.38
2023-03-29T22:45:41.092Z,14.10
2023-03-29T22:48:08.758Z,15.13
2023-03-29T22:50:38.043Z,12.43
2023-03-29T22:53:05.770Z,13.40
2023-03-29T22:55:33.311Z,14.68
2023-03-29T22:58:01.381Z,14.00
2023-03-29T23:00:29.523Z,10.13
2023-03-29T23:02:57.673Z,13.82
2023-03-29T23:05:25.546Z,14.13
2023-03-29T23:07:54.673Z,13.18
2023-03-29T23:10:25.901Z,15.70
2023-03-29T23:12:55.785Z,12.88
2023-03-29T23:15:23.516Z,13.57
2023-03-29T23:17:51.512Z,13.88
2023-03-29T23:20:19.740Z,13.18
2023-03-29T23:22:47.440Z,16.27
2023-03-29T23:25:17.781Z,15.50
2023-03-29T23:27:45.668Z,17.08
2023-03-29T23:30:13.594Z,18.52
2023-03-29T23:32:42.822Z,16.85
2023-03-29T23:35:10.484Z,16.23
2023-03-29T23:37:39.744Z,17.20
2023-03-29T23:40:09.001Z,15.82
2023-03-29T23:42:38.199Z,13.02
2023-03-29T23:45:08.007Z,17.30
2023-03-29T23:47:36.210Z,12.90
2023-03-29T23:50:07.515Z,12.57
2023-03-29T23:52:35.990Z,14.93
2023-03-29T23:55:04.256Z,13.32
2023-03-29T23:57:32.678Z,12.95
